sensor_id;sensor_type;location;lat;lon;timestamp;temperature;humidity
72865;DHT22;61000;48.120;11.548;2023-05-07T00:00:48;13.20;99.90
72865;DHT22;61000;48.120;11.548;2023-05-07T00:03:15;13.10;99.90
72865;DHT22;61000;48.120;11.548;2023-05-07T00:05:42;13.00;99.90
72865;DHT22;61000;48.120;11.548;2023-05-07T00:08:09;13.00;99.90
72865;DHT22;61000;48.120;11.548;2023-05-07T00:10:41;13.00;99.90
72865;DHT22;61000;48.120;11.548;2023-05-07T00:13:08;13.10;99.90
72865;DHT22;61000;48.120;11.548;2023-05-07T00:15:34;13.00;99.90
72865;DHT22;61000;48.120;11.548;2023-05-07T00:18:04;13.00;99.90
72865;DHT22;61000;48.120;11.548;2023-05-07T00:20:31;13.00;99.90
72865;DHT22;61000;48.120;11.548;2023-05-07T00:22:58;13.00;99.90
72865;DHT22;61000;48.120;11.548;2023-05-07T00:25:25;13.00;99.90
72865;DHT22;61000;48.120;11.548;2023-05-07T00:27:53;13.00;99.90
72865;DHT22;61000;48.120;11.548;2023-05-07T00:30:20;13.00;99.90
72865;DHT22;61000;48.120;11.548;2023-05-07T00:32:47;13.00;99.90
72865;DHT22;61000;48.120;11.548;2023-05-07T00:35:14;13.00;99.90
72865;DHT22;61000;48.120;11.548;2023-05-07T00:37:41;13.00;99.90
72865;DHT22;61000;48.120;11.548;2023-05-07T00:40:08;12.90;99.90
72865;DHT22;61000;48.120;11.548;2023-05-07T00:42:36;13.00;99.90
72865;DHT22;61000;48.120;11.548;2023-05-07T00:45:05;13.00;99.90
72865;DHT22;61000;48.120;11.548;2023-05-07T00:47:33;13.00;99.90
72865;DHT22;61000;48.120;11.548;2023-05-07T00:50:00;13.00;99.90
72865;DHT22;61000;48.120;11.548;2023-05-07T00:52:27;13.00;99.90
72865;DHT22;61000;48.120;11.548;2023-05-07T00:54:55;13.00;99.90
72865;DHT22;61000;48.120;11.548;2023-05-07T00:57:23;13.00;99.90
72865;DHT22;61000;48.120;11.548;2023-05-07T00:59:51;13.00;99.90
72865;DHT22;61000;48.120;11.548;2023-05-07T01:02:20;13.00;99.90
72865;DHT22;61000;48.120;11.548;2023-05-07T01:04:49;13.00;99.90
72865;DHT22;61000;48.120;11.548;2023-05-07T01:07:16;13.00;99.90
72865;DHT22;61000;48.120;11.548;2023-05-07T01:09:43;13.00;99.90
72865;DHT22;61000;48.120;11.548;2023-05-07T01:12:10;12.90;99.90
72865;DHT22;61000;48.120;11.548;2023-05-07T01:14:37;12.90;99.90
72865;DHT22;61000;48.120;11.548;2023-05-07T01:17:04;12.90;99.90
72865;DHT22;61000;48.120;11.548;2023-05-07T01:19:33;12.90;99.90
72865;DHT22;61000;48.120;11.548;2023-05-07T01:22:03;12.90;99.90
72865;DHT22;61000;48.120;11.548;2023-05-07T01:24:36;12.90;99.90
72865;DHT22;61000;48.120;11.548;2023-05-07T01:27:04;12.90;99.90
72865;DHT22;61000;48.120;11.548;2023-05-07T01:29:33;12.90;99.90
72865;DHT22;61000;48.120;11.548;2023-05-07T01:32:01;12.90;99.90
72865;DHT22;61000;48.120;11.548;2023-05-07T01:34:31;12.90;99.90
72865;DHT22;61000;48.120;11.548;2023-05-07T01:36:59;12.90;99.90
72865;DHT22;61000;48.120;11.548;2023-05-07T01:39:28;12.90;99.90
72865;DHT22;61000;48.120;11.548;2023-05-07T01:41:57;12.90;99.90
72865;DHT22;61000;48.120;11.548;2023-05-07T01:44:26;12.80;99.90
72865;DHT22;61000;48.120;11.548;2023-05-07T01:46:53;12.80;99.90
72865;DHT22;61000;48.120;11.548;2023-05-07T01:49:21;12.80;99.90
72865;DHT22;61000;48.120;11.548;2023-05-07T01:51:48;12.80;99.90
72865;DHT22;61000;48.120;11.548;2023-05-07T01:54:15;12.80;99.90
72865;DHT22;61000;48.120;11.548;2023-05-07T01:56:43;12.70;99.90
72865;DHT22;61000;48.120;11.548;2023-05-07T01:59:12;12.60;99.90
72865;DHT22;61000;48.120;11.548;2023-05-07T02:01:39;12.60;99.90
72865;DHT22;61000;48.120;11.548;2023-05-07T02:04:06;12.60;99.90
72865;DHT22;61000;48.120;11.548;2023-05-07T02:06:33;12.60;99.90
72865;DHT22;61000;48.120;11.548;2023-05-07T02:09:03;12.60;99.90
72865;DHT22;61000;48.120;11.548;2023-05-07T02:11:30;12.50;99.90
72865;DHT22;61000;48.120;11.548;2023-05-07T02:13:57;12.60;99.90
72865;DHT22;61000;48.120;11.548;2023-05-07T02:16:26;12.50;99.90
72865;DHT22;61000;48.120;11.548;2023-05-07T02:18:53;12.50;99.90
72865;DHT22;61000;48.120;11.548;2023-05-07T02:21:20;12.40;99.90
72865;DHT22;61000;48.120;11.548;2023-05-07T02:23:47;12.30;99.90
72865;DHT22;61000;48.120;11.548;2023-05-07T02:26:14;12.30;99.90
72865;DHT22;61000;48.120;11.548;2023-05-07T02:28:41;12.40;99.90
72865;DHT22;61000;48.120;11.548;2023-05-07T02:31:08;12.40;99.90
72865;DHT22;61000;48.120;11.548;2023-05-07T02:33:36;12.30;99.90
72865;DHT22;61000;48.120;11.548;2023-05-07T02:36:07;12.30;99.90
72865;DHT22;61000;48.120;11.548;2023-05-07T02:38:36;12.30;99.90
72865;DHT22;61000;48.120;11.548;2023-05-07T02:41:03;12.30;99.90
72865;DHT22;61000;48.120;11.548;2023-05-07T02:43:30;12.20;99.90
72865;DHT22;61000;48.120;11.548;2023-05-07T02:46:01;12.30;99.90
72865;DHT22;61000;48.120;11.548;2023-05-07T02:48:29;12.20;99.90
72865;DHT22;61000;48.120;11.548;2023-05-07T02:50:57;12.20;99.90
72865;DHT22;61000;48.120;11.548;2023-05-07T02:53:24;12.20;99.90
72865;DHT22;61000;48.120;11.548;2023-05-07T02:55:52;12.20;99.90
72865;DHT22;61000;48.120;11.548;2023-05-07T02:58:19;12.20;99.90
72865;DHT22;61000;48.120;11.548;2023-05-07T03:00:46;12.20;99.90
72865;DHT22;61000;48.120;11.548;2023-05-07T03:03:34;12.10;99.90
72865;DHT22;61000;48.120;11.548;2023-05-07T03:06:02;12.20;99.90
72865;DHT22;61000;48.120;11.548;2023-05-07T03:08:29;12.10;99.90
72865;DHT22;61000;48.120;11.548;2023-05-07T03:10:56;12.20;99.90
72865;DHT22;61000;48.120;11.548;2023-05-07T03:13:23;12.10;99.90
72865;DHT22;61000;48.120;11.548;2023-05-07T03:15:51;12.10;99.90
72865;DHT22;61000;48.120;11.548;2023-05-07T03:18:18;12.10;99.90
72865;DHT22;61000;48.120;11.548;2023-05-07T03:20:46;12.10;99.90
72865;DHT22;61000;48.120;11.548;2023-05-07T03:23:14;12.10;99.90
72865;DHT22;61000;48.120;11.548;2023-05-07T03:25:41;12.10;99.90
72865;DHT22;61000;48.120;11.548;2023-05-07T03:28:08;12.00;99.90
72865;DHT22;61000;48.120;11.548;2023-05-07T03:30:43;12.00;99.90
72865;DHT22;61000;48.120;11.548;2023-05-07T03:33:10;12.10;99.90
72865;DHT22;61000;48.120;11.548;2023-05-07T03:35:37;12.00;99.90
72865;DHT22;61000;48.120;11.548;2023-05-07T03:38:04;12.00;99.90
72865;DHT22;61000;48.120;11.548;2023-05-07T03:40:35;11.90;99.90
72865;DHT22;61000;48.120;11.548;2023-05-07T03:43:03;11.90;99.90
72865;DHT22;61000;48.120;11.548;2023-05-07T03:45:32;12.00;99.90
72865;DHT22;61000;48.120;11.548;2023-05-07T03:48:08;11.90;99.90
72865;DHT22;61000;48.120;11.548;2023-05-07T03:50:35;12.00;99.90
72865;DHT22;61000;48.120;11.548;2023-05-07T03:53:02;11.90;99.90
72865;DHT22;61000;48.120;11.548;2023-05-07T03:55:30;11.90;99.90
72865;DHT22;61000;48.120;11.548;2023-05-07T03:58:00;11.90;99.90
72865;DHT22;61000;48.120;11.548;2023-05-07T04:00:28;11.90;99.90
72865;DHT22;61000;48.120;11.548;2023-05-07T04:02:59;11.90;99.90
72865;DHT22;61000;48.120;11.548;2023-05-07T04:05:30;11.90;99.90
72865;DHT22;61000;48.120;11.548;2023-05-07T04:08:00;11.80;99.90
72865;DHT22;61000;48.120;11.548;2023-05-07T04:10:35;11.80;99.90
72865;DHT22;61000;48.120;11.548;2023-05-07T04:13:08;11.90;99.90
72865;DHT22;61000;48.120;11.548;2023-05-07T04:15:35;11.70;99.90
72865;DHT22;61000;48.120;11.548;2023-05-07T04:18:05;11.70;99.90
72865;DHT22;61000;48.120;11.548;2023-05-07T04:20:34;11.70;99.90
72865;DHT22;61000;48.120;11.548;2023-05-07T04:23:03;11.80;99.90
72865;DHT22;61000;48.120;11.548;2023-05-07T04:25:31;11.70;99.90
72865;DHT22;61000;48.120;11.548;2023-05-07T04:28:09;11.70;99.90
72865;DHT22;61000;48.120;11.548;2023-05-07T04:30:37;11.80;99.90
72865;DHT22;61000;48.120;11.548;2023-05-07T04:33:06;11.80;99.90
72865;DHT22;61000;48.120;11.548;2023-05-07T04:35:33;11.70;99.90
72865;DHT22;61000;48.120;11.548;2023-05-07T04:38:03;11.80;99.90
72865;DHT22;61000;48.120;11.548;2023-05-07T04:40:30;11.70;99.90
72865;DHT22;61000;48.120;11.548;2023-05-07T04:42:57;11.80;99.90
72865;DHT22;61000;48.120;11.548;2023-05-07T04:45:25;11.80;99.90
72865;DHT22;61000;48.120;11.548;2023-05-07T04:47:54;11.90;99.90
72865;DHT22;61000;48.120;11.548;2023-05-07T04:50:21;12.00;99.90
72865;DHT22;61000;48.120;11.548;2023-05-07T04:52:52;12.00;99.90
72865;DHT22;61000;48.120;11.548;2023-05-07T04:55:20;12.00;99.90
72865;DHT22;61000;48.120;11.548;2023-05-07T04:57:47;12.00;99.90
72865;DHT22;61000;48.120;11.548;2023-05-07T05:00:15;11.90;99.90
72865;DHT22;61000;48.120;11.548;2023-05-07T05:02:51;11.90;99.90
72865;DHT22;61000;48.120;11.548;2023-05-07T05:05:20;11.90;99.90
72865;DHT22;61000;48.120;11.548;2023-05-07T05:07:49;11.90;99.90
72865;DHT22;61000;48.120;11.548;2023-05-07T05:10:17;12.00;99.90
72865;DHT22;61000;48.120;11.548;2023-05-07T05:12:44;11.90;99.90
72865;DHT22;61000;48.120;11.548;2023-05-07T05:15:11;11.90;99.90
72865;DHT22;61000;48.120;11.548;2023-05-07T05:17:39;12.00;99.90
72865;DHT22;61000;48.120;11.548;2023-05-07T05:20:09;12.00;99.90
72865;DHT22;61000;48.120;11.548;2023-05-07T05:22:37;12.00;99.90
72865;DHT22;61000;48.120;11.548;2023-05-07T05:25:05;12.00;99.90
72865;DHT22;61000;48.120;11.548;2023-05-07T05:27:32;12.00;99.90
72865;DHT22;61000;48.120;11.548;2023-05-07T05:29:59;12.10;99.90
72865;DHT22;61000;48.120;11.548;2023-05-07T05:32:27;12.30;99.90
72865;DHT22;61000;48.120;11.548;2023-05-07T05:34:56;12.30;99.90
72865;DHT22;61000;48.120;11.548;2023-05-07T05:37:25;12.40;99.90
72865;DHT22;61000;48.120;11.548;2023-05-07T05:39:52;12.30;99.90
72865;DHT22;61000;48.120;11.548;2023-05-07T05:42:20;12.40;99.90
72865;DHT22;61000;48.120;11.548;2023-05-07T05:44:47;12.40;99.90
72865;DHT22;61000;48.120;11.548;2023-05-07T05:47:14;12.50;99.90
72865;DHT22;61000;48.120;11.548;2023-05-07T05:49:41;12.70;99.90
72865;DHT22;61000;48.120;11.548;2023-05-07T05:52:12;12.60;99.90
72865;DHT22;61000;48.120;11.548;2023-05-07T05:54:40;12.60;99.90
72865;DHT22;61000;48.120;11.548;2023-05-07T05:57:07;12.80;99.90
72865;DHT22;61000;48.120;11.548;2023-05-07T05:59:35;12.80;99.90
72865;DHT22;61000;48.120;11.548;2023-05-07T06:02:02;12.80;99.90
72865;DHT22;61000;48.120;11.548;2023-05-07T06:04:29;12.90;99.90
72865;DHT22;61000;48.120;11.548;2023-05-07T06:06:57;13.00;99.90
72865;DHT22;61000;48.120;11.548;2023-05-07T06:09:25;13.00;99.90
72865;DHT22;61000;48.120;11.548;2023-05-07T06:11:53;13.10;99.90
72865;DHT22;61000;48.120;11.548;2023-05-07T06:14:20;13.20;99.90
72865;DHT22;61000;48.120;11.548;2023-05-07T06:16:47;13.30;99.90
72865;DHT22;61000;48.120;11.548;2023-05-07T06:19:14;13.40;99.90
72865;DHT22;61000;48.120;11.548;2023-05-07T06:21:43;13.50;99.90
72865;DHT22;61000;48.120;11.548;2023-05-07T06:24:10;13.50;99.90
72865;DHT22;61000;48.120;11.548;2023-05-07T06:26:38;13.70;99.90
72865;DHT22;61000;48.120;11.548;2023-05-07T06:29:07;13.90;99.90
72865;DHT22;61000;48.120;11.548;2023-05-07T06:31:34;13.80;99.90
72865;DHT22;61000;48.120;11.548;2023-05-07T06:34:04;14.30;99.90
72865;DHT22;61000;48.120;11.548;2023-05-07T06:36:35;14.40;99.90
72865;DHT22;61000;48.120;11.548;2023-05-07T06:39:10;14.50;99.90
72865;DHT22;61000;48.120;11.548;2023-05-07T06:41:37;14.50;99.90
72865;DHT22;61000;48.120;11.548;2023-05-07T06:44:10;14.70;99.90
72865;DHT22;61000;48.120;11.548;2023-05-07T06:46:44;14.80;99.90
72865;DHT22;61000;48.120;11.548;2023-05-07T06:49:12;14.90;99.90
72865;DHT22;61000;48.120;11.548;2023-05-07T06:51:39;15.10;99.90
72865;DHT22;61000;48.120;11.548;2023-05-07T06:54:06;15.20;99.90
72865;DHT22;61000;48.120;11.548;2023-05-07T06:56:36;15.40;99.90
72865;DHT22;61000;48.120;11.548;2023-05-07T06:59:04;15.70;99.90
72865;DHT22;61000;48.120;11.548;2023-05-07T07:01:37;15.70;99.90
72865;DHT22;61000;48.120;11.548;2023-05-07T07:04:04;16.00;99.90
72865;DHT22;61000;48.120;11.548;2023-05-07T07:06:32;16.00;99.90
72865;DHT22;61000;48.120;11.548;2023-05-07T07:09:01;16.20;99.90
72865;DHT22;61000;48.120;11.548;2023-05-07T07:11:29;16.20;99.90
72865;DHT22;61000;48.120;11.548;2023-05-07T07:13:56;16.40;99.90
72865;DHT22;61000;48.120;11.548;2023-05-07T07:16:24;16.40;99.90
72865;DHT22;61000;48.120;11.548;2023-05-07T07:18:52;16.50;99.90
72865;DHT22;61000;48.120;11.548;2023-05-07T07:21:19;16.60;99.90
72865;DHT22;61000;48.120;11.548;2023-05-07T07:23:46;16.60;99.90
72865;DHT22;61000;48.120;11.548;2023-05-07T07:26:14;16.80;99.90
72865;DHT22;61000;48.120;11.548;2023-05-07T07:28:43;16.90;99.90
72865;DHT22;61000;48.120;11.548;2023-05-07T07:31:10;17.00;99.90
72865;DHT22;61000;48.120;11.548;2023-05-07T07:33:39;17.00;99.90
72865;DHT22;61000;48.120;11.548;2023-05-07T07:36:09;17.10;99.90
72865;DHT22;61000;48.120;11.548;2023-05-07T07:38:36;17.20;99.90
72865;DHT22;61000;48.120;11.548;2023-05-07T07:41:04;17.30;99.90
72865;DHT22;61000;48.120;11.548;2023-05-07T07:43:31;17.40;99.90
72865;DHT22;61000;48.120;11.548;2023-05-07T07:45:58;17.60;99.90
72865;DHT22;61000;48.120;11.548;2023-05-07T07:48:26;17.60;99.90
72865;DHT22;61000;48.120;11.548;2023-05-07T07:50:53;17.80;99.90
72865;DHT22;61000;48.120;11.548;2023-05-07T07:53:22;17.90;99.90
72865;DHT22;61000;48.120;11.548;2023-05-07T07:55:49;18.10;99.90
72865;DHT22;61000;48.120;11.548;2023-05-07T07:58:19;18.30;99.90
72865;DHT22;61000;48.120;11.548;2023-05-07T08:01:16;18.40;99.90
72865;DHT22;61000;48.120;11.548;2023-05-07T08:03:47;19.00;99.90
72865;DHT22;61000;48.120;11.548;2023-05-07T08:06:14;18.60;99.90
72865;DHT22;61000;48.120;11.548;2023-05-07T08:08:49;18.60;99.90
72865;DHT22;61000;48.120;11.548;2023-05-07T08:11:18;18.70;99.90
72865;DHT22;61000;48.120;11.548;2023-05-07T08:13:51;18.80;99.90
72865;DHT22;61000;48.120;11.548;2023-05-07T08:16:21;18.90;99.90
72865;DHT22;61000;48.120;11.548;2023-05-07T08:18:48;19.00;99.90
72865;DHT22;61000;48.120;11.548;2023-05-07T08:21:15;18.90;99.90
72865;DHT22;61000;48.120;11.548;2023-05-07T08:23:42;19.00;99.90
72865;DHT22;61000;48.120;11.548;2023-05-07T08:26:11;19.50;99.90
72865;DHT22;61000;48.120;11.548;2023-05-07T08:28:38;19.20;99.90
72865;DHT22;61000;48.120;11.548;2023-05-07T08:31:05;19.30;99.90
72865;DHT22;61000;48.120;11.548;2023-05-07T08:33:35;19.50;99.90
72865;DHT22;61000;48.120;11.548;2023-05-07T08:36:04;19.60;99.90
72865;DHT22;61000;48.120;11.548;2023-05-07T08:38:31;19.70;99.90
72865;DHT22;61000;48.120;11.548;2023-05-07T08:40:58;19.60;99.90
72865;DHT22;61000;48.120;11.548;2023-05-07T08:43:27;19.60;99.90
72865;DHT22;61000;48.120;11.548;2023-05-07T08:45:55;19.80;99.90
72865;DHT22;61000;48.120;11.548;2023-05-07T08:48:29;20.00;99.90
72865;DHT22;61000;48.120;11.548;2023-05-07T08:51:07;20.10;99.90
72865;DHT22;61000;48.120;11.548;2023-05-07T08:53:35;20.40;99.90
72865;DHT22;61000;48.120;11.548;2023-05-07T08:56:04;20.40;99.90
72865;DHT22;61000;48.120;11.548;2023-05-07T08:58:32;20.40;99.90
72865;DHT22;61000;48.120;11.548;2023-05-07T09:01:00;20.40;94.90
72865;DHT22;61000;48.120;11.548;2023-05-07T09:03:28;20.50;94.80
72865;DHT22;61000;48.120;11.548;2023-05-07T09:05:58;20.80;94.30
72865;DHT22;61000;48.120;11.548;2023-05-07T09:08:27;20.80;93.90
72865;DHT22;61000;48.120;11.548;2023-05-07T09:10:56;20.90;94.00
72865;DHT22;61000;48.120;11.548;2023-05-07T09:13:23;21.30;93.70
72865;DHT22;61000;48.120;11.548;2023-05-07T09:15:52;22.00;92.80
72865;DHT22;61000;48.120;11.548;2023-05-07T09:18:19;22.30;92.30
72865;DHT22;61000;48.120;11.548;2023-05-07T09:20:48;22.20;91.30
72865;DHT22;61000;48.120;11.548;2023-05-07T09:23:18;23.00;90.90
72865;DHT22;61000;48.120;11.548;2023-05-07T09:25:45;23.90;90.40
72865;DHT22;61000;48.120;11.548;2023-05-07T09:28:19;24.00;88.30
72865;DHT22;61000;48.120;11.548;2023-05-07T09:30:46;23.80;87.30
72865;DHT22;61000;48.120;11.548;2023-05-07T09:33:16;24.00;86.40
72865;DHT22;61000;48.120;11.548;2023-05-07T09:35:51;23.30;87.20
72865;DHT22;61000;48.120;11.548;2023-05-07T09:38:19;23.90;87.50
72865;DHT22;61000;48.120;11.548;2023-05-07T09:41:01;23.70;84.60
72865;DHT22;61000;48.120;11.548;2023-05-07T09:43:32;23.80;86.00
72865;DHT22;61000;48.120;11.548;2023-05-07T09:46:03;23.90;83.60
72865;DHT22;61000;48.120;11.548;2023-05-07T09:48:32;24.60;83.50
72865;DHT22;61000;48.120;11.548;2023-05-07T09:51:03;24.70;81.80
72865;DHT22;61000;48.120;11.548;2023-05-07T09:53:34;24.60;81.50
72865;DHT22;61000;48.120;11.548;2023-05-07T09:56:04;24.10;81.70
72865;DHT22;61000;48.120;11.548;2023-05-07T09:58:32;23.60;82.30
72865;DHT22;61000;48.120;11.548;2023-05-07T10:01:01;22.90;84.40
72865;DHT22;61000;48.120;11.548;2023-05-07T10:03:30;22.90;85.80
72865;DHT22;61000;48.120;11.548;2023-05-07T10:06:03;22.90;84.50
72865;DHT22;61000;48.120;11.548;2023-05-07T10:08:31;23.20;84.50
72865;DHT22;61000;48.120;11.548;2023-05-07T10:14:25;23.30;82.80
72865;DHT22;61000;48.120;11.548;2023-05-07T10:16:54;23.10;83.30
72865;DHT22;61000;48.120;11.548;2023-05-07T10:19:29;22.70;83.20
72865;DHT22;61000;48.120;11.548;2023-05-07T10:22:01;22.60;84.20
72865;DHT22;61000;48.120;11.548;2023-05-07T10:24:32;22.20;87.60
72865;DHT22;61000;48.120;11.548;2023-05-07T10:27:06;21.80;89.60
72865;DHT22;61000;48.120;11.548;2023-05-07T10:29:42;22.00;90.00
72865;DHT22;61000;48.120;11.548;2023-05-07T10:32:33;22.40;90.00
72865;DHT22;61000;48.120;11.548;2023-05-07T10:35:09;22.40;86.90
72865;DHT22;61000;48.120;11.548;2023-05-07T10:37:39;22.10;87.60
72865;DHT22;61000;48.120;11.548;2023-05-07T10:40:09;22.10;88.50
72865;DHT22;61000;48.120;11.548;2023-05-07T10:42:38;22.00;88.40
72865;DHT22;61000;48.120;11.548;2023-05-07T10:45:13;22.00;90.10
72865;DHT22;61000;48.120;11.548;2023-05-07T10:48:10;22.30;88.50
72865;DHT22;61000;48.120;11.548;2023-05-07T10:50:47;22.40;86.10
72865;DHT22;61000;48.120;11.548;2023-05-07T10:53:31;22.70;86.70
72865;DHT22;61000;48.120;11.548;2023-05-07T10:56:35;22.80;83.30
72865;DHT22;61000;48.120;11.548;2023-05-07T10:59:34;23.10;84.30
72865;DHT22;61000;48.120;11.548;2023-05-07T11:02:17;22.60;85.60
72865;DHT22;61000;48.120;11.548;2023-05-07T11:05:20;22.50;87.40
72865;DHT22;61000;48.120;11.548;2023-05-07T11:08:18;22.80;85.50
72865;DHT22;61000;48.120;11.548;2023-05-07T11:11:01;22.70;86.70
72865;DHT22;61000;48.120;11.548;2023-05-07T11:13:44;22.50;83.90
72865;DHT22;61000;48.120;11.548;2023-05-07T11:16:41;22.40;85.80
72865;DHT22;61000;48.120;11.548;2023-05-07T11:19:50;22.20;88.80
72865;DHT22;61000;48.120;11.548;2023-05-07T11:22:38;22.30;87.00
72865;DHT22;61000;48.120;11.548;2023-05-07T11:25:27;22.10;88.20
72865;DHT22;61000;48.120;11.548;2023-05-07T11:28:09;22.60;85.00
72865;DHT22;61000;48.120;11.548;2023-05-07T11:31:03;22.50;86.30
72865;DHT22;61000;48.120;11.548;2023-05-07T11:33:37;22.80;88.00
72865;DHT22;61000;48.120;11.548;2023-05-07T11:36:10;22.80;86.80
72865;DHT22;61000;48.120;11.548;2023-05-07T11:38:46;22.60;87.20
72865;DHT22;61000;48.120;11.548;2023-05-07T11:41:19;22.30;88.30
72865;DHT22;61000;48.120;11.548;2023-05-07T11:43:58;23.60;91.60
72865;DHT22;61000;48.120;11.548;2023-05-07T11:46:30;22.70;90.40
72865;DHT22;61000;48.120;11.548;2023-05-07T11:49:11;23.60;90.30
72865;DHT22;61000;48.120;11.548;2023-05-07T11:51:58;22.70;87.70
72865;DHT22;61000;48.120;11.548;2023-05-07T11:54:26;23.30;88.70
72865;DHT22;61000;48.120;11.548;2023-05-07T11:57:03;22.50;90.00
72865;DHT22;61000;48.120;11.548;2023-05-07T11:59:50;22.80;90.60
72865;DHT22;61000;48.120;11.548;2023-05-07T12:02:19;22.70;89.10
72865;DHT22;61000;48.120;11.548;2023-05-07T12:04:46;22.70;86.90
72865;DHT22;61000;48.120;11.548;2023-05-07T12:07:13;22.60;87.40
72865;DHT22;61000;48.120;11.548;2023-05-07T12:09:53;22.90;87.90
72865;DHT22;61000;48.120;11.548;2023-05-07T12:12:23;22.80;87.80
72865;DHT22;61000;48.120;11.548;2023-05-07T12:14:53;22.80;89.40
72865;DHT22;61000;48.120;11.548;2023-05-07T12:17:26;23.00;87.70
72865;DHT22;61000;48.120;11.548;2023-05-07T12:20:12;23.00;88.20
72865;DHT22;61000;48.120;11.548;2023-05-07T12:22:40;23.20;89.90
72865;DHT22;61000;48.120;11.548;2023-05-07T12:25:09;23.40;88.90
72865;DHT22;61000;48.120;11.548;2023-05-07T12:27:40;22.80;86.60
72865;DHT22;61000;48.120;11.548;2023-05-07T12:30:11;22.80;86.60
72865;DHT22;61000;48.120;11.548;2023-05-07T12:32:47;23.20;86.10
72865;DHT22;61000;48.120;11.548;2023-05-07T12:35:26;23.20;87.40
72865;DHT22;61000;48.120;11.548;2023-05-07T12:38:13;22.80;84.40
72865;DHT22;61000;48.120;11.548;2023-05-07T12:40:55;23.10;85.50
72865;DHT22;61000;48.120;11.548;2023-05-07T12:43:26;23.00;87.40
72865;DHT22;61000;48.120;11.548;2023-05-07T12:46:03;23.20;87.20
72865;DHT22;61000;48.120;11.548;2023-05-07T12:48:33;23.10;83.40
72865;DHT22;61000;48.120;11.548;2023-05-07T12:51:00;22.80;85.00
72865;DHT22;61000;48.120;11.548;2023-05-07T12:53:31;23.10;84.70
72865;DHT22;61000;48.120;11.548;2023-05-07T12:55:59;22.70;83.50
72865;DHT22;61000;48.120;11.548;2023-05-07T12:58:48;22.70;83.80
72865;DHT22;61000;48.120;11.548;2023-05-07T13:01:20;23.10;84.90
72865;DHT22;61000;48.120;11.548;2023-05-07T13:03:50;23.60;84.40
72865;DHT22;61000;48.120;11.548;2023-05-07T13:06:19;23.30;82.10
72865;DHT22;61000;48.120;11.548;2023-05-07T13:08:48;23.10;80.10
72865;DHT22;61000;48.120;11.548;2023-05-07T13:11:18;23.20;80.00
72865;DHT22;61000;48.120;11.548;2023-05-07T13:13:48;23.10;80.30
72865;DHT22;61000;48.120;11.548;2023-05-07T13:16:15;23.20;79.50
72865;DHT22;61000;48.120;11.548;2023-05-07T13:18:46;22.90;79.20
72865;DHT22;61000;48.120;11.548;2023-05-07T13:21:13;22.80;79.00
72865;DHT22;61000;48.120;11.548;2023-05-07T13:23:45;22.90;79.90
72865;DHT22;61000;48.120;11.548;2023-05-07T13:26:12;22.80;78.40
72865;DHT22;61000;48.120;11.548;2023-05-07T13:28:38;23.00;79.00
72865;DHT22;61000;48.120;11.548;2023-05-07T13:31:07;22.90;77.90
72865;DHT22;61000;48.120;11.548;2023-05-07T13:33:34;22.90;77.10
72865;DHT22;61000;48.120;11.548;2023-05-07T13:36:01;22.90;76.00
72865;DHT22;61000;48.120;11.548;2023-05-07T13:38:30;23.00;75.90
72865;DHT22;61000;48.120;11.548;2023-05-07T13:40:57;22.90;75.60
72865;DHT22;61000;48.120;11.548;2023-05-07T13:43:24;23.00;75.50
72865;DHT22;61000;48.120;11.548;2023-05-07T13:45:51;23.00;75.10
72865;DHT22;61000;48.120;11.548;2023-05-07T13:48:19;23.20;75.30
72865;DHT22;61000;48.120;11.548;2023-05-07T13:50:46;23.20;73.40
72865;DHT22;61000;48.120;11.548;2023-05-07T13:53:13;23.20;74.10
72865;DHT22;61000;48.120;11.548;2023-05-07T13:55:42;23.50;73.90
72865;DHT22;61000;48.120;11.548;2023-05-07T13:58:10;23.30;71.70
72865;DHT22;61000;48.120;11.548;2023-05-07T14:00:37;23.20;71.90
72865;DHT22;61000;48.120;11.548;2023-05-07T14:03:04;23.10;72.20
72865;DHT22;61000;48.120;11.548;2023-05-07T14:05:33;23.20;72.80
72865;DHT22;61000;48.120;11.548;2023-05-07T14:08:00;23.30;72.80
72865;DHT22;61000;48.120;11.548;2023-05-07T14:10:28;23.40;73.10
72865;DHT22;61000;48.120;11.548;2023-05-07T14:12:56;23.40;72.30
72865;DHT22;61000;48.120;11.548;2023-05-07T14:15:23;23.10;73.10
72865;DHT22;61000;48.120;11.548;2023-05-07T14:17:52;23.00;73.20
72865;DHT22;61000;48.120;11.548;2023-05-07T14:20:20;22.90;73.50
72865;DHT22;61000;48.120;11.548;2023-05-07T14:22:48;23.00;73.80
72865;DHT22;61000;48.120;11.548;2023-05-07T14:25:15;22.90;75.10
72865;DHT22;61000;48.120;11.548;2023-05-07T14:27:48;22.80;74.40
72865;DHT22;61000;48.120;11.548;2023-05-07T14:30:15;22.70;75.00
72865;DHT22;61000;48.120;11.548;2023-05-07T14:32:42;22.70;75.50
72865;DHT22;61000;48.120;11.548;2023-05-07T14:35:09;22.70;74.50
72865;DHT22;61000;48.120;11.548;2023-05-07T14:37:36;22.80;75.30
72865;DHT22;61000;48.120;11.548;2023-05-07T14:40:06;22.70;75.50
72865;DHT22;61000;48.120;11.548;2023-05-07T14:42:33;22.50;76.20
72865;DHT22;61000;48.120;11.548;2023-05-07T14:45:00;22.50;76.70
72865;DHT22;61000;48.120;11.548;2023-05-07T14:47:27;22.50;77.10
72865;DHT22;61000;48.120;11.548;2023-05-07T14:49:54;22.50;78.10
72865;DHT22;61000;48.120;11.548;2023-05-07T14:52:22;22.40;77.50
72865;DHT22;61000;48.120;11.548;2023-05-07T14:54:49;22.30;78.70
72865;DHT22;61000;48.120;11.548;2023-05-07T14:57:18;22.20;79.40
72865;DHT22;61000;48.120;11.548;2023-05-07T14:59:45;22.10;80.20
72865;DHT22;61000;48.120;11.548;2023-05-07T15:02:12;22.10;80.30
72865;DHT22;61000;48.120;11.548;2023-05-07T15:04:39;21.70;81.70
72865;DHT22;61000;48.120;11.548;2023-05-07T15:07:11;21.70;81.90
72865;DHT22;61000;48.120;11.548;2023-05-07T15:09:40;21.70;82.60
72865;DHT22;61000;48.120;11.548;2023-05-07T15:12:07;21.60;82.50
72865;DHT22;61000;48.120;11.548;2023-05-07T15:14:35;21.70;82.90
72865;DHT22;61000;48.120;11.548;2023-05-07T15:17:02;21.60;83.20
72865;DHT22;61000;48.120;11.548;2023-05-07T15:19:29;21.60;83.10
72865;DHT22;61000;48.120;11.548;2023-05-07T15:21:56;21.60;83.20
72865;DHT22;61000;48.120;11.548;2023-05-07T15:24:23;21.50;83.60
72865;DHT22;61000;48.120;11.548;2023-05-07T15:26:51;21.60;84.70
72865;DHT22;61000;48.120;11.548;2023-05-07T15:29:18;21.50;83.50
72865;DHT22;61000;48.120;11.548;2023-05-07T15:31:47;21.40;83.70
72865;DHT22;61000;48.120;11.548;2023-05-07T15:34:14;21.40;84.20
72865;DHT22;61000;48.120;11.548;2023-05-07T15:36:42;21.40;84.30